sensor_id;sensor_type;location;lat;lon;timestamp;temperature;humidity
20380;DHT22;10349;48.666;8.948;2023-03-03T00:01:24;0.30;99.90
20380;DHT22;10349;48.666;8.948;2023-03-03T00:03:51;0.40;99.90
20380;DHT22;10349;48.666;8.948;2023-03-03T00:06:16;0.40;99.90
20380;DHT22;10349;48.666;8.948;2023-03-03T00:08:42;0.40;99.90
20380;DHT22;10349;48.666;8.948;2023-03-03T00:11:08;0.50;99.90
20380;DHT22;10349;48.666;8.948;2023-03-03T00:13:44;0.50;99.90
20380;DHT22;10349;48.666;8.948;2023-03-03T00:18:47;0.50;99.90
20380;DHT22;10349;48.666;8.948;2023-03-03T00:21:31;0.60;99.90
20380;DHT22;10349;48.666;8.948;2023-03-03T00:24:24;0.50;99.90
20380;DHT22;10349;48.666;8.948;2023-03-03T00:26:55;0.50;99.90
20380;DHT22;10349;48.666;8.948;2023-03-03T00:29:32;0.50;99.90
20380;DHT22;10349;48.666;8.948;2023-03-03T00:34:52;0.50;99.90
20380;DHT22;10349;48.666;8.948;2023-03-03T00:37:27;0.50;99.90
20380;DHT22;10349;48.666;8.948;2023-03-03T00:40:01;0.50;99.90
20380;DHT22;10349;48.666;8.948;2023-03-03T00:42:34;0.50;99.90
20380;DHT22;10349;48.666;8.948;2023-03-03T00:45:00;0.40;99.90
20380;DHT22;10349;48.666;8.948;2023-03-03T00:47:34;0.40;99.90
20380;DHT22;10349;48.666;8.948;2023-03-03T00:52:41;0.40;99.90
20380;DHT22;10349;48.666;8.948;2023-03-03T00:55:10;0.40;99.90
20380;DHT22;10349;48.666;8.948;2023-03-03T00:57:36;0.40;99.90
20380;DHT22;10349;48.666;8.948;2023-03-03T01:00:04;0.40;99.90
20380;DHT22;10349;48.666;8.948;2023-03-03T01:02:30;0.30;99.90
20380;DHT22;10349;48.666;8.948;2023-03-03T01:04:56;0.30;99.90
20380;DHT22;10349;48.666;8.948;2023-03-03T01:07:25;0.30;99.90
20380;DHT22;10349;48.666;8.948;2023-03-03T01:09:51;0.20;99.90
20380;DHT22;10349;48.666;8.948;2023-03-03T01:12:17;0.20;99.90
20380;DHT22;10349;48.666;8.948;2023-03-03T01:14:43;0.10;99.90
20380;DHT22;10349;48.666;8.948;2023-03-03T01:17:09;0.10;99.90
20380;DHT22;10349;48.666;8.948;2023-03-03T01:19:35;0.10;99.90
20380;DHT22;10349;48.666;8.948;2023-03-03T01:22:01;0.00;99.90
20380;DHT22;10349;48.666;8.948;2023-03-03T01:24:29;0.10;99.90
20380;DHT22;10349;48.666;8.948;2023-03-03T01:26:55;0.00;99.90
20380;DHT22;10349;48.666;8.948;2023-03-03T01:29:21;-0.20;99.90
20380;DHT22;10349;48.666;8.948;2023-03-03T01:31:47;-0.20;99.90
20380;DHT22;10349;48.666;8.948;2023-03-03T01:34:12;-0.30;99.90
20380;DHT22;10349;48.666;8.948;2023-03-03T01:36:38;-0.30;99.90
20380;DHT22;10349;48.666;8.948;2023-03-03T01:39:04;-0.30;99.90
20380;DHT22;10349;48.666;8.948;2023-03-03T01:41:30;-0.40;99.90
20380;DHT22;10349;48.666;8.948;2023-03-03T01:43:59;-0.40;99.90
20380;DHT22;10349;48.666;8.948;2023-03-03T01:46:47;-0.50;99.90
20380;DHT22;10349;48.666;8.948;2023-03-03T01:52:39;-0.50;99.90
20380;DHT22;10349;48.666;8.948;2023-03-03T01:55:13;-0.50;99.90
20380;DHT22;10349;48.666;8.948;2023-03-03T01:57:43;-0.60;99.90
20380;DHT22;10349;48.666;8.948;2023-03-03T02:00:11;-0.60;99.90
20380;DHT22;10349;48.666;8.948;2023-03-03T02:02:41;-0.70;99.90
20380;DHT22;10349;48.666;8.948;2023-03-03T02:05:08;-0.70;99.90
20380;DHT22;10349;48.666;8.948;2023-03-03T02:07:34;-0.70;99.90
20380;DHT22;10349;48.666;8.948;2023-03-03T02:10:14;-0.80;99.90
20380;DHT22;10349;48.666;8.948;2023-03-03T02:12:50;-0.80;99.90
20380;DHT22;10349;48.666;8.948;2023-03-03T02:15:22;-0.80;99.90
20380;DHT22;10349;48.666;8.948;2023-03-03T02:18:04;-0.90;99.90
20380;DHT22;10349;48.666;8.948;2023-03-03T02:23:02;-0.90;99.90
20380;DHT22;10349;48.666;8.948;2023-03-03T02:25:43;-1.00;99.90
20380;DHT22;10349;48.666;8.948;2023-03-03T02:28:11;-1.10;99.90
20380;DHT22;10349;48.666;8.948;2023-03-03T02:30:38;-1.10;99.90
20380;DHT22;10349;48.666;8.948;2023-03-03T02:33:05;-1.20;99.90
20380;DHT22;10349;48.666;8.948;2023-03-03T02:35:33;-1.20;99.90
20380;DHT22;10349;48.666;8.948;2023-03-03T02:40:58;-1.30;99.90
20380;DHT22;10349;48.666;8.948;2023-03-03T02:43:30;-1.30;99.90
20380;DHT22;10349;48.666;8.948;2023-03-03T02:45:57;-1.30;99.90
20380;DHT22;10349;48.666;8.948;2023-03-03T02:48:23;-1.30;99.90
20380;DHT22;10349;48.666;8.948;2023-03-03T02:50:49;-1.30;99.90
20380;DHT22;10349;48.666;8.948;2023-03-03T02:53:15;-1.30;99.90
20380;DHT22;10349;48.666;8.948;2023-03-03T02:55:40;-1.40;99.90
20380;DHT22;10349;48.666;8.948;2023-03-03T02:58:06;-1.40;99.90
20380;DHT22;10349;48.666;8.948;2023-03-03T03:00:32;-1.40;99.90
20380;DHT22;10349;48.666;8.948;2023-03-03T03:02:57;-1.40;99.90
20380;DHT22;10349;48.666;8.948;2023-03-03T03:05:24;-1.40;99.90
20380;DHT22;10349;48.666;8.948;2023-03-03T03:07:49;-1.40;99.90
20380;DHT22;10349;48.666;8.948;2023-03-03T03:10:15;-1.50;99.90
20380;DHT22;10349;48.666;8.948;2023-03-03T03:12:41;-1.40;99.90
20380;DHT22;10349;48.666;8.948;2023-03-03T03:15:09;-1.50;99.90
20380;DHT22;10349;48.666;8.948;2023-03-03T03:17:37;-1.50;99.90
20380;DHT22;10349;48.666;8.948;2023-03-03T03:20:04;-1.50;99.90
20380;DHT22;10349;48.666;8.948;2023-03-03T03:22:29;-1.40;99.90
20380;DHT22;10349;48.666;8.948;2023-03-03T03:24:55;-1.40;99.90
20380;DHT22;10349;48.666;8.948;2023-03-03T03:27:21;-1.40;99.90
20380;DHT22;10349;48.666;8.948;2023-03-03T03:29:48;-1.40;99.90
20380;DHT22;10349;48.666;8.948;2023-03-03T03:32:14;-1.40;99.90
20380;DHT22;10349;48.666;8.948;2023-03-03T03:34:40;-1.40;99.90
20380;DHT22;10349;48.666;8.948;2023-03-03T03:37:07;-1.30;99.90
20380;DHT22;10349;48.666;8.948;2023-03-03T03:39:34;-1.30;99.90
20380;DHT22;10349;48.666;8.948;2023-03-03T03:42:00;-1.30;99.90
20380;DHT22;10349;48.666;8.948;2023-03-03T03:44:26;-1.30;99.90
20380;DHT22;10349;48.666;8.948;2023-03-03T03:46:53;-1.30;99.90
20380;DHT22;10349;48.666;8.948;2023-03-03T03:49:19;-1.20;99.90
20380;DHT22;10349;48.666;8.948;2023-03-03T03:51:46;-1.20;99.90
20380;DHT22;10349;48.666;8.948;2023-03-03T03:54:15;-1.10;99.90
20380;DHT22;10349;48.666;8.948;2023-03-03T03:56:42;-1.10;99.90
20380;DHT22;10349;48.666;8.948;2023-03-03T03:59:08;-1.00;99.90
20380;DHT22;10349;48.666;8.948;2023-03-03T04:01:34;-1.00;99.90
20380;DHT22;10349;48.666;8.948;2023-03-03T04:04:00;-1.00;99.90
20380;DHT22;10349;48.666;8.948;2023-03-03T04:06:27;-0.90;99.90
20380;DHT22;10349;48.666;8.948;2023-03-03T04:08:54;-0.90;99.90
20380;DHT22;10349;48.666;8.948;2023-03-03T04:11:21;-0.90;99.90
20380;DHT22;10349;48.666;8.948;2023-03-03T04:13:47;-0.80;99.90
20380;DHT22;10349;48.666;8.948;2023-03-03T04:16:13;-0.80;99.90
20380;DHT22;10349;48.666;8.948;2023-03-03T04:18:41;-0.80;99.90
20380;DHT22;10349;48.666;8.948;2023-03-03T04:21:11;-0.80;99.90
20380;DHT22;10349;48.666;8.948;2023-03-03T04:23:37;-0.80;99.90
20380;DHT22;10349;48.666;8.948;2023-03-03T04:26:03;-0.80;99.90
20380;DHT22;10349;48.666;8.948;2023-03-03T04:28:29;-0.80;99.90
20380;DHT22;10349;48.666;8.948;2023-03-03T04:30:55;-0.90;99.90
20380;DHT22;10349;48.666;8.948;2023-03-03T04:33:22;-0.80;99.90
20380;DHT22;10349;48.666;8.948;2023-03-03T04:35:48;-0.80;99.90
20380;DHT22;10349;48.666;8.948;2023-03-03T04:38:14;-0.80;99.90
20380;DHT22;10349;48.666;8.948;2023-03-03T04:40:41;-0.80;99.90
20380;DHT22;10349;48.666;8.948;2023-03-03T04:43:07;-0.80;99.90
20380;DHT22;10349;48.666;8.948;2023-03-03T04:45:32;-0.70;99.90
20380;DHT22;10349;48.666;8.948;2023-03-03T04:47:58;-0.70;99.90
20380;DHT22;10349;48.666;8.948;2023-03-03T04:50:24;-0.60;99.90
20380;DHT22;10349;48.666;8.948;2023-03-03T04:52:50;-0.60;99.90
20380;DHT22;10349;48.666;8.948;2023-03-03T04:55:16;-0.50;99.90
20380;DHT22;10349;48.666;8.948;2023-03-03T04:57:42;-0.50;99.90
20380;DHT22;10349;48.666;8.948;2023-03-03T05:00:10;-0.40;99.90
20380;DHT22;10349;48.666;8.948;2023-03-03T05:02:38;-0.40;99.90
20380;DHT22;10349;48.666;8.948;2023-03-03T05:05:05;-0.40;99.90
20380;DHT22;10349;48.666;8.948;2023-03-03T05:07:31;-0.30;99.90
20380;DHT22;10349;48.666;8.948;2023-03-03T05:09:56;-0.30;99.90
20380;DHT22;10349;48.666;8.948;2023-03-03T05:12:22;-0.30;99.90
20380;DHT22;10349;48.666;8.948;2023-03-03T05:14:48;-0.30;99.90
20380;DHT22;10349;48.666;8.948;2023-03-03T05:17:13;-0.30;99.90
20380;DHT22;10349;48.666;8.948;2023-03-03T05:19:39;-0.30;99.90
20380;DHT22;10349;48.666;8.948;2023-03-03T05:22:05;-0.30;99.90
20380;DHT22;10349;48.666;8.948;2023-03-03T05:24:31;-0.30;99.90
20380;DHT22;10349;48.666;8.948;2023-03-03T05:26:57;-0.20;99.90
20380;DHT22;10349;48.666;8.948;2023-03-03T05:29:23;-0.20;99.90
20380;DHT22;10349;48.666;8.948;2023-03-03T05:31:48;-0.20;99.90
20380;DHT22;10349;48.666;8.948;2023-03-03T05:34:14;-0.20;99.90
20380;DHT22;10349;48.666;8.948;2023-03-03T05:36:40;-0.20;99.90
20380;DHT22;10349;48.666;8.948;2023-03-03T05:39:06;-0.10;99.90
20380;DHT22;10349;48.666;8.948;2023-03-03T05:41:32;-0.10;99.90
20380;DHT22;10349;48.666;8.948;2023-03-03T05:44:01;-0.10;99.90
20380;DHT22;10349;48.666;8.948;2023-03-03T05:46:28;0.00;99.90
20380;DHT22;10349;48.666;8.948;2023-03-03T05:48:53;0.00;99.90
20380;DHT22;10349;48.666;8.948;2023-03-03T05:51:19;0.10;99.90
20380;DHT22;10349;48.666;8.948;2023-03-03T05:53:47;0.10;99.90
20380;DHT22;10349;48.666;8.948;2023-03-03T05:56:13;0.10;99.90
20380;DHT22;10349;48.666;8.948;2023-03-03T05:58:38;0.10;99.90
20380;DHT22;10349;48.666;8.948;2023-03-03T06:01:04;0.10;99.90
20380;DHT22;10349;48.666;8.948;2023-03-03T06:03:30;0.10;99.90
20380;DHT22;10349;48.666;8.948;2023-03-03T06:05:56;0.10;99.90
20380;DHT22;10349;48.666;8.948;2023-03-03T06:08:22;0.10;99.90
20380;DHT22;10349;48.666;8.948;2023-03-03T06:10:48;0.00;99.90
20380;DHT22;10349;48.666;8.948;2023-03-03T06:13:14;0.10;99.90
20380;DHT22;10349;48.666;8.948;2023-03-03T06:15:40;0.00;99.90
20380;DHT22;10349;48.666;8.948;2023-03-03T06:18:05;0.00;99.90
20380;DHT22;10349;48.666;8.948;2023-03-03T06:20:31;0.00;99.90
20380;DHT22;10349;48.666;8.948;2023-03-03T06:22:57;0.00;99.90
20380;DHT22;10349;48.666;8.948;2023-03-03T06:25:23;0.00;99.90
20380;DHT22;10349;48.666;8.948;2023-03-03T06:27:49;0.10;99.90
20380;DHT22;10349;48.666;8.948;2023-03-03T06:30:15;0.10;99.90
20380;DHT22;10349;48.666;8.948;2023-03-03T06:32:41;0.10;99.90
20380;DHT22;10349;48.666;8.948;2023-03-03T06:35:06;0.10;99.90
20380;DHT22;10349;48.666;8.948;2023-03-03T06:37:32;0.10;99.90
20380;DHT22;10349;48.666;8.948;2023-03-03T06:39:58;0.20;99.90
20380;DHT22;10349;48.666;8.948;2023-03-03T06:42:24;0.20;99.90
20380;DHT22;10349;48.666;8.948;2023-03-03T06:44:49;0.20;99.90
20380;DHT22;10349;48.666;8.948;2023-03-03T06:47:15;0.30;99.90
20380;DHT22;10349;48.666;8.948;2023-03-03T06:49:41;0.30;99.90
20380;DHT22;10349;48.666;8.948;2023-03-03T06:52:18;0.30;99.90
20380;DHT22;10349;48.666;8.948;2023-03-03T06:54:44;0.30;99.90
20380;DHT22;10349;48.666;8.948;2023-03-03T06:57:22;0.40;99.90
20380;DHT22;10349;48.666;8.948;2023-03-03T06:59:52;0.40;99.90
20380;DHT22;10349;48.666;8.948;2023-03-03T07:02:20;0.50;99.90
20380;DHT22;10349;48.666;8.948;2023-03-03T07:04:46;0.50;99.90
20380;DHT22;10349;48.666;8.948;2023-03-03T07:07:18;0.50;99.90
20380;DHT22;10349;48.666;8.948;2023-03-03T07:09:47;0.50;99.90
20380;DHT22;10349;48.666;8.948;2023-03-03T07:12:17;0.50;99.90
20380;DHT22;10349;48.666;8.948;2023-03-03T07:14:45;0.60;99.90
20380;DHT22;10349;48.666;8.948;2023-03-03T07:17:17;0.60;99.90
20380;DHT22;10349;48.666;8.948;2023-03-03T07:19:44;0.60;99.90
20380;DHT22;10349;48.666;8.948;2023-03-03T07:22:14;0.70;99.90
20380;DHT22;10349;48.666;8.948;2023-03-03T07:24:41;0.70;99.90
20380;DHT22;10349;48.666;8.948;2023-03-03T07:27:12;0.80;99.90
20380;DHT22;10349;48.666;8.948;2023-03-03T07:29:38;0.80;99.90
20380;DHT22;10349;48.666;8.948;2023-03-03T07:32:25;0.80;99.90
20380;DHT22;10349;48.666;8.948;2023-03-03T07:34:55;0.80;99.90
20380;DHT22;10349;48.666;8.948;2023-03-03T07:37:30;0.90;99.90
20380;DHT22;10349;48.666;8.948;2023-03-03T07:39:59;0.90;99.90
20380;DHT22;10349;48.666;8.948;2023-03-03T07:42:39;1.00;99.90
20380;DHT22;10349;48.666;8.948;2023-03-03T07:45:31;1.00;99.90
20380;DHT22;10349;48.666;8.948;2023-03-03T07:50:49;1.20;99.90
20380;DHT22;10349;48.666;8.948;2023-03-03T07:53:30;1.30;99.90
20380;DHT22;10349;48.666;8.948;2023-03-03T07:55:59;1.40;99.90
20380;DHT22;10349;48.666;8.948;2023-03-03T07:58:38;1.40;99.90
20380;DHT22;10349;48.666;8.948;2023-03-03T08:03:49;1.40;99.90
20380;DHT22;10349;48.666;8.948;2023-03-03T08:09:01;1.50;99.90
20380;DHT22;10349;48.666;8.948;2023-03-03T08:11:53;1.60;99.90
20380;DHT22;10349;48.666;8.948;2023-03-03T08:14:25;1.60;99.90
20380;DHT22;10349;48.666;8.948;2023-03-03T08:16:51;1.70;99.90
20380;DHT22;10349;48.666;8.948;2023-03-03T08:19:17;1.70;99.90
20380;DHT22;10349;48.666;8.948;2023-03-03T08:21:43;1.70;99.90
20380;DHT22;10349;48.666;8.948;2023-03-03T08:24:08;1.80;99.90
20380;DHT22;10349;48.666;8.948;2023-03-03T08:26:34;1.80;99.90
20380;DHT22;10349;48.666;8.948;2023-03-03T08:29:00;1.90;99.90
20380;DHT22;10349;48.666;8.948;2023-03-03T08:31:26;2.00;99.90
20380;DHT22;10349;48.666;8.948;2023-03-03T08:33:51;2.10;99.90
20380;DHT22;10349;48.666;8.948;2023-03-03T08:36:18;2.20;99.90
20380;DHT22;10349;48.666;8.948;2023-03-03T08:38:44;2.40;99.90
20380;DHT22;10349;48.666;8.948;2023-03-03T08:41:10;2.50;99.90
20380;DHT22;10349;48.666;8.948;2023-03-03T08:43:36;2.60;99.90
20380;DHT22;10349;48.666;8.948;2023-03-03T08:46:02;2.60;99.90
20380;DHT22;10349;48.666;8.948;2023-03-03T08:48:30;2.70;99.90
20380;DHT22;10349;48.666;8.948;2023-03-03T08:50:56;2.80;99.90
20380;DHT22;10349;48.666;8.948;2023-03-03T08:53:22;3.00;99.90
20380;DHT22;10349;48.666;8.948;2023-03-03T08:55:48;3.00;99.90
20380;DHT22;10349;48.666;8.948;2023-03-03T08:58:16;3.20;99.90
20380;DHT22;10349;48.666;8.948;2023-03-03T09:00:43;3.30;99.90
20380;DHT22;10349;48.666;8.948;2023-03-03T09:03:08;3.40;99.90
20380;DHT22;10349;48.666;8.948;2023-03-03T09:05:36;3.30;99.90
20380;DHT22;10349;48.666;8.948;2023-03-03T09:08:03;3.40;99.90
20380;DHT22;10349;48.666;8.948;2023-03-03T09:10:29;3.40;99.90
20380;DHT22;10349;48.666;8.948;2023-03-03T09:13:03;3.50;99.90
20380;DHT22;10349;48.666;8.948;2023-03-03T09:15:33;3.60;99.90
20380;DHT22;10349;48.666;8.948;2023-03-03T09:18:20;3.80;99.90
20380;DHT22;10349;48.666;8.948;2023-03-03T09:20:53;3.80;99.90
20380;DHT22;10349;48.666;8.948;2023-03-03T09:23:37;3.90;99.90
20380;DHT22;10349;48.666;8.948;2023-03-03T09:31:52;4.10;99.90
20380;DHT22;10349;48.666;8.948;2023-03-03T09:34:26;4.20;99.90
20380;DHT22;10349;48.666;8.948;2023-03-03T09:36:54;4.10;99.90
20380;DHT22;10349;48.666;8.948;2023-03-03T09:39:25;4.20;99.90
20380;DHT22;10349;48.666;8.948;2023-03-03T09:47:19;4.20;99.90
20380;DHT22;10349;48.666;8.948;2023-03-03T09:50:02;4.20;99.90
20380;DHT22;10349;48.666;8.948;2023-03-03T09:58:00;4.30;99.90
20380;DHT22;10349;48.666;8.948;2023-03-03T10:00:53;4.40;99.90
20380;DHT22;10349;48.666;8.948;2023-03-03T10:03:46;4.30;99.90
20380;DHT22;10349;48.666;8.948;2023-03-03T10:06:26;4.40;99.90
20380;DHT22;10349;48.666;8.948;2023-03-03T10:17:32;4.50;99.90
20380;DHT22;10349;48.666;8.948;2023-03-03T10:25:20;4.80;99.90
20380;DHT22;10349;48.666;8.948;2023-03-03T10:50:16;6.00;99.90
20380;DHT22;10349;48.666;8.948;2023-03-03T10:52:51;6.20;99.90
20380;DHT22;10349;48.666;8.948;2023-03-03T10:58:21;6.40;99.90
20380;DHT22;10349;48.666;8.948;2023-03-03T11:15:07;7.10;99.90
20380;DHT22;10349;48.666;8.948;2023-03-03T11:20:37;7.30;99.90
20380;DHT22;10349;48.666;8.948;2023-03-03T11:25:56;7.20;99.90
20380;DHT22;10349;48.666;8.948;2023-03-03T11:31:47;7.50;99.90
20380;DHT22;10349;48.666;8.948;2023-03-03T11:34:25;7.60;99.90
20380;DHT22;10349;48.666;8.948;2023-03-03T11:37:00;7.70;99.90
20380;DHT22;10349;48.666;8.948;2023-03-03T11:39:28;7.70;99.90
20380;DHT22;10349;48.666;8.948;2023-03-03T11:44:41;7.80;99.90
20380;DHT22;10349;48.666;8.948;2023-03-03T11:47:25;7.80;99.90
20380;DHT22;10349;48.666;8.948;2023-03-03T11:50:03;8.00;99.90
20380;DHT22;10349;48.666;8.948;2023-03-03T11:52:43;8.10;99.90
20380;DHT22;10349;48.666;8.948;2023-03-03T11:55:26;8.30;99.90
20380;DHT22;10349;48.666;8.948;2023-03-03T12:03:53;8.00;99.90
20380;DHT22;10349;48.666;8.948;2023-03-03T12:06:31;7.80;99.90
20380;DHT22;10349;48.666;8.948;2023-03-03T12:12:05;7.40;99.90
20380;DHT22;10349;48.666;8.948;2023-03-03T12:15:29;7.40;99.90
20380;DHT22;10349;48.666;8.948;2023-03-03T12:18:14;7.50;99.90
20380;DHT22;10349;48.666;8.948;2023-03-03T12:26:25;7.40;99.90
20380;DHT22;10349;48.666;8.948;2023-03-03T12:34:45;7.50;99.90
20380;DHT22;10349;48.666;8.948;2023-03-03T12:37:22;7.50;99.90
20380;DHT22;10349;48.666;8.948;2023-03-03T12:40:09;7.60;99.90
20380;DHT22;10349;48.666;8.948;2023-03-03T12:42:50;7.70;99.90
20380;DHT22;10349;48.666;8.948;2023-03-03T12:45:39;7.60;99.90
20380;DHT22;10349;48.666;8.948;2023-03-03T12:48:20;7.70;99.90
20380;DHT22;10349;48.666;8.948;2023-03-03T13:05:52;7.60;99.90
20380;DHT22;10349;48.666;8.948;2023-03-03T13:08:29;7.70;99.90
20380;DHT22;10349;48.666;8.948;2023-03-03T13:11:21;7.80;99.90
20380;DHT22;10349;48.666;8.948;2023-03-03T13:17:08;7.70;99.90
20380;DHT22;10349;48.666;8.948;2023-03-03T13:19:58;7.70;99.90
20380;DHT22;10349;48.666;8.948;2023-03-03T13:22:33;7.80;99.90
20380;DHT22;10349;48.666;8.948;2023-03-03T13:27:44;8.00;99.90
20380;DHT22;10349;48.666;8.948;2023-03-03T13:30:23;8.00;99.90
20380;DHT22;10349;48.666;8.948;2023-03-03T13:36:10;8.10;99.90
20380;DHT22;10349;48.666;8.948;2023-03-03T13:38:47;8.20;99.90
20380;DHT22;10349;48.666;8.948;2023-03-03T13:41:21;8.20;99.90
20380;DHT22;10349;48.666;8.948;2023-03-03T13:44:03;8.10;99.90
20380;DHT22;10349;48.666;8.948;2023-03-03T13:46:40;8.00;99.90
20380;DHT22;10349;48.666;8.948;2023-03-03T13:52:12;8.10;99.90
20380;DHT22;10349;48.666;8.948;2023-03-03T13:55:01;8.10;99.90
20380;DHT22;10349;48.666;8.948;2023-03-03T14:03:24;7.90;99.90
20380;DHT22;10349;48.666;8.948;2023-03-03T14:06:06;7.90;99.90
20380;DHT22;10349;48.666;8.948;2023-03-03T14:11:22;8.10;99.90
20380;DHT22;10349;48.666;8.948;2023-03-03T14:19:13;8.10;99.90
20380;DHT22;10349;48.666;8.948;2023-03-03T14:21:52;8.20;99.90
20380;DHT22;10349;48.666;8.948;2023-03-03T14:24:22;8.20;99.90
20380;DHT22;10349;48.666;8.948;2023-03-03T14:26:56;8.20;99.90
20380;DHT22;10349;48.666;8.948;2023-03-03T14:29:30;8.20;99.90
20380;DHT22;10349;48.666;8.948;2023-03-03T14:32:01;8.10;99.90
20380;DHT22;10349;48.666;8.948;2023-03-03T14:34:39;8.00;99.90
20380;DHT22;10349;48.666;8.948;2023-03-03T14:37:25;8.00;99.90
20380;DHT22;10349;48.666;8.948;2023-03-03T14:40:15;8.00;99.90
20380;DHT22;10349;48.666;8.948;2023-03-03T14:45:38;7.90;99.90
20380;DHT22;10349;48.666;8.948;2023-03-03T14:50:40;7.80;99.90
20380;DHT22;10349;48.666;8.948;2023-03-03T14:53:21;7.90;99.90
20380;DHT22;10349;48.666;8.948;2023-03-03T14:55:54;7.80;99.90
20380;DHT22;10349;48.666;8.948;2023-03-03T14:58:39;7.90;99.90
20380;DHT22;10349;48.666;8.948;2023-03-03T15:01:23;7.80;99.90
20380;DHT22;10349;48.666;8.948;2023-03-03T15:06:44;7.80;99.90
20380;DHT22;10349;48.666;8.948;2023-03-03T15:11:56;7.80;99.90
20380;DHT22;10349;48.666;8.948;2023-03-03T15:14:28;7.80;99.90
20380;DHT22;10349;48.666;8.948;2023-03-03T15:16:57;7.80;99.90
20380;DHT22;10349;48.666;8.948;2023-03-03T15:19:47;7.80;99.90
20380;DHT22;10349;48.666;8.948;2023-03-03T15:22:18;7.80;99.90
20380;DHT22;10349;48.666;8.948;2023-03-03T15:25:53;7.80;99.90
20380;DHT22;10349;48.666;8.948;2023-03-03T15:33:28;7.70;99.90
20380;DHT22;10349;48.666;8.948;2023-03-03T15:36:16;7.70;99.90
20380;DHT22;10349;48.666;8.948;2023-03-03T15:38:58;7.60;99.90
20380;DHT22;10349;48.666;8.948;2023-03-03T15:41:43;7.60;99.90
20380;DHT22;10349;48.666;8.948;2023-03-03T15:44:45;7.60;99.90
20380;DHT22;10349;48.666;8.948;2023-03-03T15:47:28;7.60;99.90
20380;DHT22;10349;48.666;8.948;2023-03-03T15:50:25;7.60;99.90
20380;DHT22;10349;48.666;8.948;2023-03-03T15:53:06;7.50;99.90
20380;DHT22;10349;48.666;8.948;2023-03-03T16:01:15;7.60;99.90
20380;DHT22;10349;48.666;8.948;2023-03-03T16:03:45;7.60;99.90
20380;DHT22;10349;48.666;8.948;2023-03-03T16:06:32;7.50;99.90
20380;DHT22;10349;48.666;8.948;2023-03-03T16:11:48;7.40;99.90
20380;DHT22;10349;48.666;8.948;2023-03-03T16:20:08;7.40;99.90
20380;DHT22;10349;48.666;8.948;2023-03-03T16:25:41;7.30;99.90
20380;DHT22;10349;48.666;8.948;2023-03-03T16:31:10;7.30;99.90
20380;DHT22;10349;48.666;8.948;2023-03-03T16:33:51;7.20;99.90
20380;DHT22;10349;48.666;8.948;2023-03-03T16:39:19;7.00;99.90
20380;DHT22;10349;48.666;8.948;2023-03-03T16:45:19;6.90;99.90
20380;DHT22;10349;48.666;8.948;2023-03-03T16:50:42;6.70;99.90
20380;DHT22;10349;48.666;8.948;2023-03-03T16:56:02;6.60;99.90
20380;DHT22;10349;48.666;8.948;2023-03-03T16:59:41;6.50;99.90
20380;DHT22;10349;48.666;8.948;2023-03-03T17:06:59;6.30;99.90
20380;DHT22;10349;48.666;8.948;2023-03-03T17:15:45;6.10;99.90
20380;DHT22;10349;48.666;8.948;2023-03-03T17:18:14;6.10;99.90
20380;DHT22;10349;48.666;8.948;2023-03-03T17:20:46;6.00;99.90
20380;DHT22;10349;48.666;8.948;2023-03-03T17:35:09;5.70;99.90
20380;DHT22;10349;48.666;8.948;2023-03-03T17:43:24;5.40;99.90
20380;DHT22;10349;48.666;8.948;2023-03-03T17:45:54;5.30;99.90
20380;DHT22;10349;48.666;8.948;2023-03-03T17:51:42;5.20;99.90
20380;DHT22;10349;48.666;8.948;2023-03-03T18:00:01;4.90;99.90
20380;DHT22;10349;48.666;8.948;2023-03-03T18:24:38;4.10;99.90
20380;DHT22;10349;48.666;8.948;2023-03-03T18:35:38;3.60;99.90
20380;DHT22;10349;48.666;8.948;2023-03-03T19:18:25;2.30;99.90
20380;DHT22;10349;48.666;8.948;2023-03-03T19:23:23;2.20;99.90
20380;DHT22;10349;48.666;8.948;2023-03-03T19:28:55;2.00;99.90
20380;DHT22;10349;48.666;8.948;2023-03-03T19:48:35;1.70;99.90
20380;DHT22;10349;48.666;8.948;2023-03-03T19:56:55;1.60;99.90
20380;DHT22;10349;48.666;8.948;2023-03-03T19:59:39;1.60;99.90
20380;DHT22;10349;48.666;8.948;2023-03-03T20:02:30;1.50;99.90
20380;DHT22;10349;48.666;8.948;2023-03-03T20:05:18;1.40;99.90
20380;DHT22;10349;48.666;8.948;2023-03-03T20:13:13;1.30;99.90
20380;DHT22;10349;48.666;8.948;2023-03-03T20:16:08;1.30;99.90
20380;DHT22;10349;48.666;8.948;2023-03-03T20:22:10;1.30;99.90
20380;DHT22;10349;48.666;8.948;2023-03-03T20:30:41;1.30;99.90
20380;DHT22;10349;48.666;8.948;2023-03-03T20:35:57;1.20;99.90
20380;DHT22;10349;48.666;8.948;2023-03-03T20:44:11;1.10;99.90
20380;DHT22;10349;48.666;8.948;2023-03-03T20:50:14;1.00;99.90
20380;DHT22;10349;48.666;8.948;2023-03-03T20:53:09;0.90;99.90
20380;DHT22;10349;48.666;8.948;2023-03-03T20:56:09;0.90;99.90
20380;DHT22;10349;48.666;8.948;2023-03-03T21:01:41;0.90;99.90
20380;DHT22;10349;48.666;8.948;2023-03-03T21:04:24;0.80;99.90
20380;DHT22;10349;48.666;8.948;2023-03-03T21:07:00;0.70;99.90
20380;DHT22;10349;48.666;8.948;2023-03-03T21:13:37;0.70;99.90
20380;DHT22;10349;48.666;8.948;2023-03-03T21:18:58;0.50;99.90
20380;DHT22;10349;48.666;8.948;2023-03-03T21:21:26;0.50;99.90
20380;DHT22;10349;48.666;8.948;2023-03-03T21:24:05;0.50;99.90
20380;DHT22;10349;48.666;8.948;2023-03-03T21:26:53;0.40;99.90
20380;DHT22;10349;48.666;8.948;2023-03-03T21:29:36;0.40;99.90
20380;DHT22;10349;48.666;8.948;2023-03-03T21:32:37;0.30;99.90
20380;DHT22;10349;48.666;8.948;2023-03-03T21:35:05;0.30;99.90
20380;DHT22;10349;48.666;8.948;2023-03-03T21:37:55;0.20;99.90
20380;DHT22;10349;48.666;8.948;2023-03-03T21:40:24;0.20;99.90
20380;DHT22;10349;48.666;8.948;2023-03-03T21:43:03;0.20;99.90
20380;DHT22;10349;48.666;8.948;2023-03-03T21:45:29;0.10;99.90
20380;DHT22;10349;48.666;8.948;2023-03-03T21:48:03;0.10;99.90
20380;DHT22;10349;48.666;8.948;2023-03-03T21:50:29;0.10;99.90
20380;DHT22;10349;48.666;8.948;2023-03-03T21:52:57;0.00;99.90
20380;DHT22;10349;48.666;8.948;2023-03-03T21:55:30;0.00;99.90
20380;DHT22;10349;48.666;8.948;2023-03-03T21:57:56;-0.10;99.90
20380;DHT22;10349;48.666;8.948;2023-03-03T22:00:22;-0.20;99.90
20380;DHT22;10349;48.666;8.948;2023-03-03T22:02:48;-0.20;99.90
20380;DHT22;10349;48.666;8.948;2023-03-03T22:05:14;-0.20;99.90
20380;DHT22;10349;48.666;8.948;2023-03-03T22:07:40;-0.20;99.90
20380;DHT22;10349;48.666;8.948;2023-03-03T22:10:06;-0.20;99.90
20380;DHT22;10349;48.666;8.948;2023-03-03T22:12:32;-0.30;99.90
20380;DHT22;10349;48.666;8.948;2023-03-03T22:14:57;-0.30;99.90
20380;DHT22;10349;48.666;8.948;2023-03-03T22:17:23;-0.30;99.90
20380;DHT22;10349;48.666;8.948;2023-03-03T22:19:50;-0.30;99.90
20380;DHT22;10349;48.666;8.948;2023-03-03T22:22:16;-0.30;99.90
20380;DHT22;10349;48.666;8.948;2023-03-03T22:24:42;-0.40;99.90
20380;DHT22;10349;48.666;8.948;2023-03-03T22:27:08;-0.40;99.90
20380;DHT22;10349;48.666;8.948;2023-03-03T22:29:36;-0.40;99.90
20380;DHT22;10349;48.666;8.948;2023-03-03T22:32:02;-0.40;99.90
20380;DHT22;10349;48.666;8.948;2023-03-03T22:34:27;-0.40;99.90
20380;DHT22;10349;48.666;8.948;2023-03-03T22:36:53;-0.50;99.90
20380;DHT22;10349;48.666;8.948;2023-03-03T22:39:19;-0.50;99.90
20380;DHT22;10349;48.666;8.948;2023-03-03T22:41:45;-0.50;99.90